Time;durP1;ratioP1;P1;durP2;ratioP2;P2;SDS_P1;SDS_P2;PMS_P1;PMS_P2;Temp;Humidity;BMP_temperature;BMP_pressure;BME280_temperature;BME280_humidity;BME280_pressure;Samples;Min_cycle;Max_cycle;Signal;HPM_P1;HPM_P2
2022/01/02 00:01:43;;;;;;;1.38;0.88;;;;;;;;;;4984083;28;20042;-73
2022/01/02 00:04:14;;;;;;;5.18;1.45;;;;;;;;;;5029216;28;20683;-73
2022/01/02 00:06:42;;;;;;;0.30;0.30;;;;;;;;;;5026646;28;20037;-74
2022/01/02 00:09:08;;;;;;;0.10;0.10;;;;;;;;;;5028708;28;20040;-71
2022/01/02 00:11:37;;;;;;;0.50;0.50;;;;;;;;;;5025435;28;20397;-73
2022/01/02 00:14:08;;;;;;;0.20;0.20;;;;;;;;;;5032611;28;20059;-74
2022/01/02 00:16:34;;;;;;;;;;;;;;;;;;5031087;28;20052;-73
2022/01/02 00:19:08;;;;;;;1.08;0.88;;;;;;;;;;5029730;28;19913;-73
2022/01/02 00:21:39;;;;;;;2.00;0.82;;;;;;;;;;5030551;28;20628;-73
2022/01/02 00:24:07;;;;;;;0.98;0.95;;;;;;;;;;5020414;28;20151;-73
2022/01/02 00:26:45;;;;;;;0.22;0.22;;;;;;;;;;5033452;28;20055;-77
2022/01/02 00:29:12;;;;;;;0.35;0.35;;;;;;;;;;5038855;28;20488;-73
2022/01/02 00:31:39;;;;;;;0.13;0.13;;;;;;;;;;5026985;28;20068;-73
2022/01/02 00:34:06;;;;;;;0.43;0.25;;;;;;;;;;5028735;28;20025;-72
2022/01/02 00:36:32;;;;;;;0.57;0.20;;;;;;;;;;5028043;28;20025;-73
2022/01/02 00:38:58;;;;;;;0.65;0.63;;;;;;;;;;5025770;28;20044;-73
2022/01/02 00:41:26;;;;;;;1.52;0.38;;;;;;;;;;5022388;28;20025;-73
2022/01/02 00:43:58;;;;;;;5.35;1.83;;;;;;;;;;5018420;28;20044;-73
2022/01/02 00:46:26;;;;;;;1.17;0.20;;;;;;;;;;5028392;28;20026;-73
2022/01/02 00:48:56;;;;;;;7.10;0.35;;;;;;;;;;5027565;28;20494;-71
2022/01/02 00:51:27;;;;;;;0.47;0.47;;;;;;;;;;5025187;28;20025;-71
2022/01/02 00:53:57;;;;;;;0.00;0.00;;;;;;;;;;5024661;28;20033;-71
2022/01/02 00:56:27;;;;;;;0.60;0.38;;;;;;;;;;5025313;28;20025;-72
2022/01/02 00:58:56;;;;;;;0.57;0.43;;;;;;;;;;5026024;28;20463;-72
2022/01/02 01:01:42;;;;;;;0.55;0.55;;;;;;;;;;5018086;28;20033;-71
2022/01/02 01:04:10;;;;;;;0.40;0.40;;;;;;;;;;5026009;28;20503;-71
2022/01/02 01:06:39;;;;;;;3.20;0.68;;;;;;;;;;5024897;28;20032;-71
2022/01/02 01:09:05;;;;;;;0.40;0.40;;;;;;;;;;5021867;28;20476;-72
2022/01/02 01:11:31;;;;;;;0.70;0.70;;;;;;;;;;5024570;28;20090;-72
2022/01/02 01:13:59;;;;;;;0.00;0.00;;;;;;;;;;5027919;28;20022;-71
2022/01/02 01:16:25;;;;;;;0.00;0.00;;;;;;;;;;5021231;28;20021;-71
2022/01/02 01:18:51;;;;;;;0.30;0.30;;;;;;;;;;5023976;28;20461;-71
2022/01/02 01:21:17;;;;;;;0.10;0.10;;;;;;;;;;5026599;28;20518;-71
2022/01/02 01:23:43;;;;;;;0.20;0.20;;;;;;;;;;5026759;28;20060;-71
2022/01/02 01:26:11;;;;;;;0.63;0.20;;;;;;;;;;5030672;28;20396;-71
2022/01/02 01:28:37;;;;;;;0.20;0.20;;;;;;;;;;5028118;28;20038;-71
2022/01/02 01:31:03;;;;;;;3.40;1.17;;;;;;;;;;5026550;28;20373;-71
2022/01/02 01:33:29;;;;;;;1.25;1.15;;;;;;;;;;5023646;28;20021;-71
2022/01/02 01:35:55;;;;;;;1.45;1.23;;;;;;;;;;5027853;28;20045;-72
2022/01/02 01:38:21;;;;;;;0.10;0.10;;;;;;;;;;5031242;28;20024;-71
2022/01/02 01:40:51;;;;;;;0.45;0.45;;;;;;;;;;5022473;28;20113;-71
2022/01/02 01:43:30;;;;;;;0.32;0.32;;;;;;;;;;5021352;28;20465;-71
2022/01/02 01:45:56;;;;;;;0.95;0.40;;;;;;;;;;5024830;28;20034;-71
2022/01/02 01:48:22;;;;;;;0.13;0.13;;;;;;;;;;5022553;28;20040;-71
2022/01/02 01:50:48;;;;;;;0.43;0.40;;;;;;;;;;5024118;28;20029;-71
2022/01/02 01:53:14;;;;;;;0.90;0.75;;;;;;;;;;5031514;28;20025;-71
2022/01/02 01:55:40;;;;;;;0.22;0.22;;;;;;;;;;5029136;28;20054;-71
2022/01/02 01:58:07;;;;;;;2.72;0.82;;;;;;;;;;5027822;28;20404;-71
2022/01/02 02:00:34;;;;;;;0.98;0.50;;;;;;;;;;5029644;28;20046;-71
2022/01/02 02:03:00;;;;;;;0.10;0.10;;;;;;;;;;5030592;28;20029;-71
2022/01/02 02:05:26;;;;;;;1.27;0.45;;;;;;;;;;5027981;28;20041;-71
2022/01/02 02:07:52;;;;;;;0.30;0.30;;;;;;;;;;5023386;28;20037;-71
2022/01/02 02:10:28;;;;;;;0.15;0.15;;;;;;;;;;5039031;28;20033;-71
2022/01/02 02:12:55;;;;;;;0.15;0.15;;;;;;;;;;5030897;28;20101;-71
2022/01/02 02:15:21;;;;;;;0.98;0.47;;;;;;;;;;5030446;28;20030;-71
2022/01/02 02:17:48;;;;;;;0.10;0.10;;;;;;;;;;5026251;28;20014;-71
2022/01/02 02:20:14;;;;;;;0.25;0.25;;;;;;;;;;5025297;28;20033;-72
2022/01/02 02:22:42;;;;;;;0.25;0.25;;;;;;;;;;5031373;28;20381;-72
2022/01/02 02:25:10;;;;;;;2.10;1.25;;;;;;;;;;5026754;28;20032;-72
2022/01/02 02:27:36;;;;;;;0.22;0.22;;;;;;;;;;5030083;28;20384;-72
2022/01/02 02:30:02;;;;;;;0.30;0.30;;;;;;;;;;5022260;28;20036;-72
2022/01/02 02:32:28;;;;;;;0.30;0.30;;;;;;;;;;5027528;28;20034;-72
2022/01/02 02:34:54;;;;;;;0.25;0.22;;;;;;;;;;5021853;28;20026;-72
2022/01/02 02:37:20;;;;;;;1.38;0.75;;;;;;;;;;5020213;28;20028;-72
2022/01/02 02:39:46;;;;;;;0.00;0.00;;;;;;;;;;5023501;28;20137;-71
2022/01/02 02:42:25;;;;;;;0.50;0.45;;;;;;;;;;5027218;28;20036;-72
2022/01/02 02:48:56;;;;;;;0.30;0.30;;;;;;;;;;5026412;28;20550;-71
2022/01/02 02:50:21;;;;;;;0.00;0.00;;;;;;;;;;5025394;28;20507;-72
2022/01/02 02:52:47;;;;;;;0.20;0.20;;;;;;;;;;5029501;28;20034;-72
2022/01/02 02:55:13;;;;;;;0.40;0.40;;;;;;;;;;5028027;28;21459;-72
2022/01/02 02:57:39;;;;;;;0.10;0.10;;;;;;;;;;5025640;28;20030;-72
2022/01/02 03:00:06;;;;;;;8.43;0.93;;;;;;;;;;5023619;28;20034;-72
2022/01/02 03:02:32;;;;;;;0.70;0.45;;;;;;;;;;5026620;28;20043;-72
2022/01/02 03:04:57;;;;;;;0.28;0.28;;;;;;;;;;5028343;28;20485;-72
2022/01/02 03:07:23;;;;;;;3.45;1.15;;;;;;;;;;5028021;28;20071;-71
2022/01/02 03:09:51;;;;;;;0.35;0.35;;;;;;;;;;5024021;28;20443;-72
2022/01/02 03:12:19;;;;;;;0.20;0.20;;;;;;;;;;5025529;28;20013;-72
2022/01/02 03:14:44;;;;;;;0.40;0.40;;;;;;;;;;5021431;28;20539;-72
2022/01/02 03:17:10;;;;;;;1.38;1.08;;;;;;;;;;5028294;28;20048;-72
2022/01/02 03:19:36;;;;;;;0.00;0.00;;;;;;;;;;5027448;28;20124;-71
2022/01/02 03:22:02;;;;;;;0.28;0.28;;;;;;;;;;5023925;28;20022;-71
2022/01/02 03:24:28;;;;;;;0.47;0.47;;;;;;;;;;5027038;28;20500;-71
2022/01/02 03:26:54;;;;;;;0.20;0.20;;;;;;;;;;5033705;28;20036;-72
2022/01/02 03:29:20;;;;;;;0.03;0.03;;;;;;;;;;5017244;28;20410;-72
2022/01/02 03:31:46;;;;;;;0.10;0.10;;;;;;;;;;5029144;28;20032;-72
2022/01/02 03:34:12;;;;;;;0.70;0.70;;;;;;;;;;5024996;28;20029;-72
2022/01/02 03:36:38;;;;;;;0.40;0.40;;;;;;;;;;5029577;28;20041;-72
2022/01/02 03:39:04;;;;;;;0.25;0.25;;;;;;;;;;5030253;28;20057;-72
2022/01/02 03:41:30;;;;;;;0.47;0.47;;;;;;;;;;5027195;28;20071;-72
2022/01/02 03:43:56;;;;;;;0.45;0.45;;;;;;;;;;5025294;28;20079;-72
2022/01/02 03:46:22;;;;;;;0.32;0.22;;;;;;;;;;5015935;28;20111;-72
2022/01/02 03:48:48;;;;;;;0.43;0.43;;;;;;;;;;5024502;28;20022;-72
2022/01/02 03:51:13;;;;;;;0.40;0.40;;;;;;;;;;5024420;28;20020;-72
2022/01/02 03:53:39;;;;;;;0.10;0.10;;;;;;;;;;5023572;28;20491;-72
2022/01/02 03:56:05;;;;;;;0.15;0.15;;;;;;;;;;5024663;28;20025;-71
2022/01/02 03:58:31;;;;;;;0.32;0.20;;;;;;;;;;5022712;28;20032;-71
2022/01/02 04:00:57;;;;;;;0.20;0.20;;;;;;;;;;5026062;28;20059;-71
2022/01/02 04:03:23;;;;;;;0.30;0.30;;;;;;;;;;5023705;28;20044;-71
2022/01/02 04:05:49;;;;;;;0.00;0.00;;;;;;;;;;5022485;28;20026;-72
2022/01/02 04:08:15;;;;;;;0.20;0.20;;;;;;;;;;5024674;28;20493;-72
2022/01/02 04:10:41;;;;;;;0.15;0.15;;;;;;;;;;5023853;28;20037;-72
2022/01/02 04:13:07;;;;;;;0.82;0.80;;;;;;;;;;5023985;28;20046;-71
2022/01/02 04:15:33;;;;;;;0.10;0.10;;;;;;;;;;5023380;28;20108;-72
2022/01/02 04:17:59;;;;;;;1.13;1.02;;;;;;;;;;5025677;28;20033;-72
2022/01/02 04:20:25;;;;;;;0.20;0.20;;;;;;;;;;5029927;28;20025;-72
2022/01/02 04:22:51;;;;;;;0.05;0.05;;;;;;;;;;5022149;28;20045;-72
2022/01/02 04:25:17;;;;;;;8.35;1.52;;;;;;;;;;5028619;28;20104;-71
2022/01/02 04:27:43;;;;;;;2.08;1.85;;;;;;;;;;5021352;28;20021;-72
2022/01/02 04:30:11;;;;;;;0.10;0.10;;;;;;;;;;5022572;28;20709;-72
2022/01/02 04:32:37;;;;;;;0.55;0.55;;;;;;;;;;5019802;28;20591;-71
2022/01/02 04:35:03;;;;;;;2.10;0.63;;;;;;;;;;5025626;28;20101;-72
2022/01/02 04:37:29;;;;;;;0.30;0.30;;;;;;;;;;5021111;28;20021;-72
2022/01/02 04:39:55;;;;;;;0.38;0.38;;;;;;;;;;5026883;28;20252;-71
2022/01/02 04:42:21;;;;;;;0.17;0.17;;;;;;;;;;5021760;28;20033;-72
2022/01/02 04:44:47;;;;;;;0.65;0.65;;;;;;;;;;5028073;28;20038;-72
2022/01/02 04:47:13;;;;;;;0.40;0.28;;;;;;;;;;5025472;28;20040;-72
2022/01/02 04:49:39;;;;;;;0.03;0.03;;;;;;;;;;5018460;28;20049;-71
2022/01/02 04:52:08;;;;;;;0.52;0.30;;;;;;;;;;5025925;28;20039;-72
2022/01/02 04:54:34;;;;;;;0.20;0.20;;;;;;;;;;5024726;28;20032;-72
2022/01/02 04:57:00;;;;;;;0.75;0.55;;;;;;;;;;5024520;28;20013;-72
2022/01/02 04:59:26;;;;;;;0.35;0.35;;;;;;;;;;5025949;28;20022;-72
2022/01/02 05:01:52;;;;;;;0.32;0.32;;;;;;;;;;5023942;28;20030;-71
2022/01/02 05:04:18;;;;;;;0.98;0.95;;;;;;;;;;5021809;28;20030;-71
2022/01/02 05:06:44;;;;;;;0.10;0.10;;;;;;;;;;5023497;28;20033;-72
2022/01/02 05:09:10;;;;;;;1.38;0.57;;;;;;;;;;5021854;28;20026;-72
2022/01/02 05:11:35;;;;;;;0.13;0.13;;;;;;;;;;5027876;28;20381;-72
2022/01/02 05:14:01;;;;;;;0.00;0.00;;;;;;;;;;5026217;28;20024;-72
2022/01/02 05:16:27;;;;;;;2.13;0.35;;;;;;;;;;5026896;28;20018;-72
2022/01/02 05:18:53;;;;;;;0.22;0.22;;;;;;;;;;5021294;28;20116;-72
2022/01/02 05:21:19;;;;;;;0.25;0.25;;;;;;;;;;5018896;28;20044;-72
2022/01/02 05:23:45;;;;;;;0.10;0.10;;;;;;;;;;5021219;28;20045;-71
2022/01/02 05:26:11;;;;;;;0.20;0.20;;;;;;;;;;5026968;28;20030;-72
2022/01/02 05:28:37;;;;;;;0.30;0.30;;;;;;;;;;5023786;28;20033;-71
2022/01/02 05:31:03;;;;;;;0.45;0.45;;;;;;;;;;5025762;28;20389;-72
2022/01/02 05:33:29;;;;;;;0.68;0.45;;;;;;;;;;5015926;28;20068;-72
2022/01/02 05:35:55;;;;;;;0.20;0.20;;;;;;;;;;5024186;28;20443;-72
2022/01/02 05:38:21;;;;;;;0.13;0.13;;;;;;;;;;5022433;28;20057;-71
2022/01/02 05:40:49;;;;;;;0.57;0.57;;;;;;;;;;5023679;28;20104;-71
2022/01/02 05:43:15;;;;;;;2.95;0.60;;;;;;;;;;5025727;28;20034;-72
2022/01/02 05:45:41;;;;;;;0.20;0.20;;;;;;;;;;5026216;28;20033;-71
2022/01/02 05:48:08;;;;;;;3.97;1.17;;;;;;;;;;5018802;28;20029;-72
2022/01/02 05:50:37;;;;;;;0.20;0.20;;;;;;;;;;5022880;28;20026;-71
2022/01/02 05:53:03;;;;;;;0.85;0.30;;;;;;;;;;5023169;28;20032;-72
2022/01/02 05:55:29;;;;;;;0.22;0.22;;;;;;;;;;5017237;28;20030;-72
2022/01/02 05:57:54;;;;;;;2.92;1.02;;;;;;;;;;5021476;28;20029;-69
2022/01/02 06:00:20;;;;;;;0.45;0.45;;;;;;;;;;5021191;28;20096;-72
2022/01/02 06:02:46;;;;;;;0.75;0.75;;;;;;;;;;5024895;28;20492;-72
2022/01/02 06:05:12;;;;;;;0.30;0.30;;;;;;;;;;5020851;28;20021;-72
2022/01/02 06:07:38;;;;;;;0.10;0.10;;;;;;;;;;5020772;28;20026;-72
2022/01/02 06:10:05;;;;;;;0.00;0.00;;;;;;;;;;5021748;28;20064;-72
2022/01/02 06:12:31;;;;;;;2.38;1.60;;;;;;;;;;5026524;28;20383;-71
2022/01/02 06:14:57;;;;;;;0.00;0.00;;;;;;;;;;5026745;28;20026;-72
2022/01/02 06:17:23;;;;;;;0.13;0.13;;;;;;;;;;5022815;28;20101;-72
2022/01/02 06:19:49;;;;;;;0.30;0.30;;;;;;;;;;5018501;28;20066;-72
2022/01/02 06:22:15;;;;;;;0.17;0.17;;;;;;;;;;5022509;28;20041;-72
2022/01/02 06:24:41;;;;;;;1.45;0.77;;;;;;;;;;5021893;28;20033;-72
2022/01/02 06:27:07;;;;;;;1.38;0.98;;;;;;;;;;5021408;28;20033;-72
2022/01/02 06:29:33;;;;;;;0.10;0.10;;;;;;;;;;5024323;28;20739;-72
2022/01/02 06:31:59;;;;;;;0.47;0.32;;;;;;;;;;5014527;28;20468;-72
2022/01/02 06:34:25;;;;;;;0.13;0.13;;;;;;;;;;5022108;28;20029;-72
2022/01/02 06:36:51;;;;;;;0.00;0.00;;;;;;;;;;5031007;28;20025;-72
2022/01/02 06:39:17;;;;;;;0.20;0.20;;;;;;;;;;5026466;28;20492;-71
2022/01/02 06:41:43;;;;;;;1.38;0.63;;;;;;;;;;5030087;28;20030;-72
2022/01/02 06:44:09;;;;;;;0.55;0.55;;;;;;;;;;5028186;28;20502;-72
2022/01/02 06:46:35;;;;;;;0.57;0.28;;;;;;;;;;5027249;28;20064;-72
2022/01/02 06:49:01;;;;;;;0.15;0.15;;;;;;;;;;5026377;28;20337;-72
2022/01/02 06:51:27;;;;;;;0.20;0.20;;;;;;;;;;5018451;28;20024;-72
2022/01/02 06:53:53;;;;;;;0.08;0.08;;;;;;;;;;5029329;28;20488;-72
2022/01/02 06:56:19;;;;;;;1.13;0.50;;;;;;;;;;5025403;28;20052;-72
2022/01/02 06:58:44;;;;;;;1.10;0.77;;;;;;;;;;5024359;28;20554;-72
2022/01/02 07:01:10;;;;;;;0.05;0.05;;;;;;;;;;5028239;28;20037;-71
2022/01/02 07:03:37;;;;;;;0.65;0.40;;;;;;;;;;5025464;28;20041;-72
2022/01/02 07:06:03;;;;;;;0.28;0.28;;;;;;;;;;5018616;28;20033;-72
2022/01/02 07:08:29;;;;;;;0.70;0.70;;;;;;;;;;5024815;28;20025;-72
2022/01/02 07:10:55;;;;;;;0.43;0.35;;;;;;;;;;5029039;28;20018;-70
2022/01/02 07:13:21;;;;;;;0.25;0.25;;;;;;;;;;5025884;28;20029;-70
2022/01/02 07:15:47;;;;;;;0.20;0.13;;;;;;;;;;5025019;28;20108;-70
2022/01/02 07:18:13;;;;;;;1.08;0.55;;;;;;;;;;5030156;28;20163;-70
2022/01/02 07:20:39;;;;;;;0.22;0.22;;;;;;;;;;5029870;28;20033;-70
2022/01/02 07:23:05;;;;;;;0.32;0.32;;;;;;;;;;5023363;28;20496;-71
2022/01/02 07:25:31;;;;;;;0.35;0.35;;;;;;;;;;5026807;28;20258;-70
2022/01/02 07:27:57;;;;;;;0.77;0.77;;;;;;;;;;5021091;28;20034;-71
2022/01/02 07:30:23;;;;;;;0.57;0.57;;;;;;;;;;5024168;28;20053;-71
2022/01/02 07:32:49;;;;;;;0.55;0.55;;;;;;;;;;5029184;28;20061;-71
2022/01/02 07:35:15;;;;;;;1.02;0.93;;;;;;;;;;5024832;28;20026;-71
2022/01/02 07:37:41;;;;;;;0.10;0.10;;;;;;;;;;5024584;28;20029;-71
2022/01/02 07:40:08;;;;;;;0.10;0.10;;;;;;;;;;5022756;28;20574;-71
2022/01/02 07:42:34;;;;;;;19.80;0.85;;;;;;;;;;5027529;28;20055;-70
2022/01/02 07:44:59;;;;;;;0.60;0.60;;;;;;;;;;5025747;28;20629;-71
2022/01/02 07:47:25;;;;;;;0.70;0.40;;;;;;;;;;5025818;28;20072;-71
2022/01/02 07:49:51;;;;;;;0.20;0.17;;;;;;;;;;5029819;28;20043;-72
2022/01/02 07:52:17;;;;;;;0.10;0.10;;;;;;;;;;5031781;28;20392;-71
2022/01/02 07:54:43;;;;;;;0.00;0.00;;;;;;;;;;5025223;28;20591;-71
2022/01/02 07:57:10;;;;;;;0.10;0.10;;;;;;;;;;5025639;28;20018;-70
2022/01/02 07:59:35;;;;;;;0.10;0.10;;;;;;;;;;5025837;28;20084;-71
2022/01/02 08:02:01;;;;;;;1.27;0.75;;;;;;;;;;5022737;28;20038;-71
2022/01/02 08:04:27;;;;;;;0.47;0.43;;;;;;;;;;5018877;28;20121;-70
2022/01/02 08:06:53;;;;;;;0.50;0.43;;;;;;;;;;5028689;28;20041;-71
2022/01/02 08:09:19;;;;;;;0.20;0.20;;;;;;;;;;5023792;28;20025;-71
2022/01/02 08:11:45;;;;;;;0.30;0.30;;;;;;;;;;5017501;28;20088;-71
2022/01/02 08:14:12;;;;;;;0.45;0.45;;;;;;;;;;5021384;28;20057;-71
2022/01/02 08:16:38;;;;;;;0.80;0.17;;;;;;;;;;5027384;28;20060;-71
2022/01/02 08:19:06;;;;;;;0.57;0.55;;;;;;;;;;5027019;28;20053;-70
2022/01/02 08:21:32;;;;;;;0.45;0.13;;;;;;;;;;5023016;28;20103;-71
2022/01/02 08:23:58;;;;;;;0.10;0.10;;;;;;;;;;5022920;28;20496;-71
2022/01/02 08:26:23;;;;;;;1.70;0.70;;;;;;;;;;5025380;28;20384;-71
2022/01/02 08:28:50;;;;;;;0.32;0.30;;;;;;;;;;5029464;28;20026;-71
2022/01/02 08:31:16;;;;;;;0.47;0.47;;;;;;;;;;5029325;28;20049;-71
2022/01/02 08:33:42;;;;;;;0.57;0.57;;;;;;;;;;5023000;28;20017;-71
2022/01/02 08:36:08;;;;;;;0.10;0.10;;;;;;;;;;5026002;28;20425;-71
2022/01/02 08:38:34;;;;;;;1.27;1.17;;;;;;;;;;5021178;28;20021;-70
2022/01/02 08:41:00;;;;;;;1.23;1.10;;;;;;;;;;5026841;28;20102;-71
2022/01/02 08:43:26;;;;;;;0.10;0.10;;;;;;;;;;5026553;28;20137;-70
2022/01/02 08:45:51;;;;;;;0.85;0.65;;;;;;;;;;5026304;28;20442;-70
2022/01/02 08:48:17;;;;;;;0.00;0.00;;;;;;;;;;5035416;28;20029;-70
2022/01/02 08:50:43;;;;;;;0.20;0.20;;;;;;;;;;5022172;28;20018;-71
2022/01/02 08:53:09;;;;;;;8.30;1.48;;;;;;;;;;5026284;28;20484;-71
2022/01/02 08:55:35;;;;;;;0.13;0.13;;;;;;;;;;5024339;28;20024;-71
2022/01/02 08:58:01;;;;;;;0.17;0.17;;;;;;;;;;5028094;28;20017;-71
2022/01/02 09:00:27;;;;;;;0.52;0.52;;;;;;;;;;5025134;28;20063;-70
2022/01/02 09:02:53;;;;;;;1.38;0.85;;;;;;;;;;5026855;28;20041;-71
2022/01/02 09:05:19;;;;;;;0.52;0.52;;;;;;;;;;5027567;28;20028;-71
2022/01/02 09:07:45;;;;;;;1.10;0.43;;;;;;;;;;5024480;28;20030;-71
2022/01/02 09:10:11;;;;;;;0.32;0.32;;;;;;;;;;5023551;28;20029;-71
2022/01/02 09:12:37;;;;;;;0.20;0.20;;;;;;;;;;5023777;28;20507;-71
2022/01/02 09:15:03;;;;;;;0.05;0.05;;;;;;;;;;5032080;28;20025;-71
2022/01/02 09:17:29;;;;;;;0.00;0.00;;;;;;;;;;5027575;28;20033;-71
2022/01/02 09:19:57;;;;;;;0.00;0.00;;;;;;;;;;5034137;28;20584;-71
2022/01/02 09:22:23;;;;;;;0.08;0.08;;;;;;;;;;5029066;28;20124;-71
2022/01/02 09:24:48;;;;;;;0.20;0.10;;;;;;;;;;5038549;28;20123;-71
2022/01/02 09:27:14;;;;;;;1.67;0.52;;;;;;;;;;5020398;28;20041;-71
2022/01/02 09:29:40;;;;;;;0.30;0.30;;;;;;;;;;5022663;28;20038;-71
2022/01/02 09:32:06;;;;;;;0.00;0.00;;;;;;;;;;5024382;28;20104;-71
2022/01/02 09:34:32;;;;;;;0.05;0.05;;;;;;;;;;5020633;28;20114;-71
2022/01/02 09:36:58;;;;;;;0.20;0.20;;;;;;;;;;5020821;28;20455;-71
2022/01/02 09:39:24;;;;;;;0.05;0.05;;;;;;;;;;5022412;28;20032;-71
2022/01/02 09:41:50;;;;;;;0.22;0.22;;;;;;;;;;5027191;28;20018;-72
2022/01/02 09:44:16;;;;;;;0.10;0.10;;;;;;;;;;5026353;28;20491;-72
2022/01/02 09:46:42;;;;;;;0.30;0.30;;;;;;;;;;5031375;28;20041;-72
2022/01/02 09:49:08;;;;;;;0.10;0.10;;;;;;;;;;5016429;28;20032;-72
2022/01/02 09:51:34;;;;;;;0.40;0.40;;;;;;;;;;5022635;28;20485;-72
2022/01/02 09:54:00;;;;;;;0.00;0.00;;;;;;;;;;5020166;28;20052;-71
2022/01/02 09:56:26;;;;;;;0.17;0.17;;;;;;;;;;5022750;28;20022;-73
2022/01/02 09:58:52;;;;;;;0.57;0.43;;;;;;;;;;5028166;28;20030;-71
2022/01/02 10:01:19;;;;;;;0.55;0.55;;;;;;;;;;5018617;28;20040;-74
2022/01/02 10:03:46;;;;;;;0.90;0.38;;;;;;;;;;5022515;28;20049;-72
2022/01/02 10:06:13;;;;;;;0.90;0.63;;;;;;;;;;5020270;28;20028;-73
2022/01/02 10:08:39;;;;;;;0.30;0.30;;;;;;;;;;5027078;28;20172;-73
2022/01/02 10:11:19;;;;;;;1.17;1.00;;;;;;;;;;5031140;28;20111;-72
2022/01/02 10:13:52;;;;;;;1.40;0.17;;;;;;;;;;5028106;28;20037;-72
2022/01/02 10:16:19;;;;;;;0.17;0.17;;;;;;;;;;5026216;28;20404;-73
2022/01/02 10:18:45;;;;;;;0.10;0.10;;;;;;;;;;5027172;28;20109;-72
2022/01/02 10:21:11;;;;;;;0.65;0.65;;;;;;;;;;5023647;28;21238;-72
2022/01/02 10:23:37;;;;;;;0.65;0.65;;;;;;;;;;5024854;28;20098;-72
2022/01/02 10:26:04;;;;;;;3.40;1.15;;;;;;;;;;5027849;28;20034;-73
2022/01/02 10:28:37;;;;;;;1.00;0.55;;;;;;;;;;5025199;28;20090;-72
2022/01/02 10:31:07;;;;;;;0.43;0.43;;;;;;;;;;5025816;28;20025;-72
2022/01/02 10:33:50;;;;;;;0.28;0.28;;;;;;;;;;5029196;28;20036;-72
2022/01/02 10:36:24;;;;;;;0.63;0.30;;;;;;;;;;5029649;28;20026;-72
2022/01/02 10:39:09;;;;;;;0.17;0.17;;;;;;;;;;5020280;28;20095;-73
2022/01/02 10:41:35;;;;;;;0.63;0.63;;;;;;;;;;5029610;28;20021;-71
2022/01/02 10:44:17;;;;;;;1.15;0.85;;;;;;;;;;5024471;28;20370;-73
2022/01/02 10:47:02;;;;;;;0.00;0.00;;;;;;;;;;5037174;28;20037;-73
2022/01/02 10:49:46;;;;;;;2.25;1.08;;;;;;;;;;5027408;28;20034;-73
2022/01/02 10:52:23;;;;;;;0.20;0.20;;;;;;;;;;5023656;28;20367;-73
2022/01/02 10:54:49;;;;;;;1.08;0.60;;;;;;;;;;5025265;28;20022;-73
2022/01/02 10:57:15;;;;;;;0.08;0.08;;;;;;;;;;5019190;28;20076;-74
2022/01/02 10:59:42;;;;;;;0.20;0.20;;;;;;;;;;5026382;28;20034;-73
2022/01/02 11:02:09;;;;;;;1.98;0.73;;;;;;;;;;5024332;28;20048;-73
2022/01/02 11:04:35;;;;;;;0.08;0.08;;;;;;;;;;5030094;28;20017;-78
2022/01/02 11:07:02;;;;;;;0.00;0.00;;;;;;;;;;5028647;28;20056;-70
2022/01/02 11:09:29;;;;;;;0.17;0.17;;;;;;;;;;5023589;28;20084;-72
2022/01/02 11:11:54;;;;;;;0.22;0.22;;;;;;;;;;5022043;28;20026;-71
2022/01/02 11:14:20;;;;;;;0.00;0.00;;;;;;;;;;5028746;28;20075;-70
2022/01/02 11:16:46;;;;;;;0.38;0.38;;;;;;;;;;5019068;28;20430;-72
2022/01/02 11:19:12;;;;;;;1.45;0.45;;;;;;;;;;5024535;28;20057;-72
2022/01/02 11:21:40;;;;;;;0.20;0.20;;;;;;;;;;5026273;28;20034;-70
2022/01/02 11:24:24;;;;;;;2.95;0.85;;;;;;;;;;5023398;28;20057;-70
2022/01/02 11:27:22;;;;;;;0.47;0.47;;;;;;;;;;5026951;28;20037;-69
2022/01/02 11:29:48;;;;;;;0.20;0.20;;;;;;;;;;4996362;28;20605;-70
2022/01/02 11:32:22;;;;;;;2.28;1.48;;;;;;;;;;5026024;28;20124;-67
2022/01/02 11:34:47;;;;;;;0.30;0.30;;;;;;;;;;5025044;28;20488;-67
2022/01/02 11:37:14;;;;;;;2.17;0.85;;;;;;;;;;5020031;28;20060;-69
2022/01/02 11:39:59;;;;;;;0.30;0.30;;;;;;;;;;5018681;28;20064;-69
2022/01/02 11:42:35;;;;;;;0.30;0.30;;;;;;;;;;5018764;28;20257;-74
2022/01/02 11:45:01;;;;;;;0.28;0.28;;;;;;;;;;5023052;28;20064;-69
2022/01/02 11:47:40;;;;;;;0.28;0.28;;;;;;;;;;5024150;28;20022;-70
2022/01/02 11:50:26;;;;;;;0.30;0.30;;;;;;;;;;5023859;28;20492;-70
2022/01/02 11:53:11;;;;;;;0.05;0.05;;;;;;;;;;5023842;28;20036;-69
2022/01/02 11:55:37;;;;;;;0.20;0.20;;;;;;;;;;5026078;28;20132;-69
2022/01/02 11:58:03;;;;;;;1.17;0.85;;;;;;;;;;5025270;28;20026;-69
2022/01/02 12:00:33;;;;;;;0.25;0.17;;;;;;;;;;5025916;28;21206;-68
2022/01/02 12:02:59;;;;;;;0.40;0.40;;;;;;;;;;5026752;28;20115;-72
2022/01/02 12:05:25;;;;;;;4.43;0.52;;;;;;;;;;5024561;28;20496;-72
2022/01/02 12:07:54;;;;;;;2.72;1.77;;;;;;;;;;5024489;28;20072;-69
2022/01/02 12:10:20;;;;;;;0.80;0.70;;;;;;;;;;5016230;28;20057;-68
2022/01/02 12:12:58;;;;;;;0.30;0.30;;;;;;;;;;5016881;28;20118;-68
2022/01/02 12:15:25;;;;;;;1.65;0.57;;;;;;;;;;5026782;28;20033;-68
2022/01/02 12:18:06;;;;;;;0.13;0.13;;;;;;;;;;5024080;28;20045;-69
2022/01/02 12:20:50;;;;;;;0.85;0.85;;;;;;;;;;5024382;28;20029;-69
2022/01/02 12:23:40;;;;;;;0.80;0.80;;;;;;;;;;5018613;28;20041;-68
2022/01/02 12:26:12;;;;;;;4.25;0.82;;;;;;;;;;5026254;28;20048;-69
2022/01/02 12:28:38;;;;;;;3.05;1.17;;;;;;;;;;5024328;28;20033;-68
2022/01/02 12:31:04;;;;;;;0.70;0.65;;;;;;;;;;5023453;28;20032;-68
2022/01/02 12:33:30;;;;;;;0.55;0.55;;;;;;;;;;5020277;28;20082;-69
2022/01/02 12:35:59;;;;;;;0.15;0.15;;;;;;;;;;5023477;28;20053;-68
2022/01/02 12:38:25;;;;;;;0.38;0.38;;;;;;;;;;5023623;28;20057;-68
2022/01/02 12:40:59;;;;;;;0.20;0.20;;;;;;;;;;5022366;28;20057;-68
2022/01/02 12:43:25;;;;;;;0.32;0.32;;;;;;;;;;5023143;28;20033;-68
2022/01/02 12:45:54;;;;;;;0.63;0.63;;;;;;;;;;5022982;28;20029;-68
2022/01/02 12:48:32;;;;;;;1.15;0.55;;;;;;;;;;5023920;28;20040;-68
2022/01/02 12:51:09;;;;;;;0.43;0.43;;;;;;;;;;5021134;28;20060;-68
2022/01/02 12:53:35;;;;;;;0.90;0.90;;;;;;;;;;5023694;28;20082;-68
2022/01/02 12:56:01;;;;;;;0.63;0.63;;;;;;;;;;5026488;28;20524;-68
2022/01/02 12:58:26;;;;;;;0.70;0.70;;;;;;;;;;5024952;28;20032;-68
2022/01/02 13:00:52;;;;;;;0.68;0.65;;;;;;;;;;5025073;28;20029;-68
2022/01/02 13:03:18;;;;;;;0.63;0.52;;;;;;;;;;5026381;28;20025;-68
2022/01/02 13:05:51;;;;;;;0.70;0.70;;;;;;;;;;5021655;28;20524;-68
2022/01/02 13:08:24;;;;;;;0.80;0.80;;;;;;;;;;5026253;28;20108;-68
2022/01/02 13:10:50;;;;;;;0.77;0.77;;;;;;;;;;5024024;28;20391;-69
2022/01/02 13:13:29;;;;;;;0.00;0.00;;;;;;;;;;5024055;28;20033;-68
2022/01/02 13:15:55;;;;;;;1.30;1.15;;;;;;;;;;5023936;28;20100;-69
2022/01/02 13:18:21;;;;;;;0.22;0.22;;;;;;;;;;5024237;28;20728;-69
2022/01/02 13:20:48;;;;;;;0.75;0.52;;;;;;;;;;5025605;28;20350;-69
2022/01/02 13:23:14;;;;;;;0.20;0.20;;;;;;;;;;5025941;28;20434;-69
2022/01/02 13:25:42;;;;;;;0.82;0.82;;;;;;;;;;5026247;28;20022;-69
2022/01/02 13:28:18;;;;;;;0.38;0.38;;;;;;;;;;5023039;28;20017;-69
2022/01/02 13:30:52;;;;;;;1.00;0.73;;;;;;;;;;5023269;28;20022;-70
2022/01/02 13:33:24;;;;;;;0.50;0.50;;;;;;;;;;5024937;28;20026;-69
2022/01/02 13:35:50;;;;;;;0.73;0.73;;;;;;;;;;5021776;28;20078;-70
2022/01/02 13:38:17;;;;;;;0.57;0.57;;;;;;;;;;5020460;28;20036;-70
2022/01/02 13:40:43;;;;;;;0.10;0.10;;;;;;;;;;5021568;28;20113;-69
2022/01/02 13:43:13;;;;;;;0.20;0.20;;;;;;;;;;5022241;28;20101;-70
2022/01/02 13:45:43;;;;;;;0.30;0.30;;;;;;;;;;5025094;28;20152;-68
2022/01/02 13:48:17;;;;;;;0.35;0.35;;;;;;;;;;5025857;28;20033;-70
2022/01/02 13:50:44;;;;;;;0.20;0.20;;;;;;;;;;5027996;28;20503;-69
2022/01/02 13:53:15;;;;;;;0.20;0.20;;;;;;;;;;5026445;28;20460;-69
2022/01/02 13:55:41;;;;;;;7.63;0.63;;;;;;;;;;5028234;28;20026;-69
2022/01/02 13:58:22;;;;;;;0.20;0.20;;;;;;;;;;5028675;28;20465;-69
2022/01/02 14:00:49;;;;;;;0.60;0.43;;;;;;;;;;5028077;28;20052;-69
2022/01/02 14:03:32;;;;;;;0.52;0.52;;;;;;;;;;5028297;28;20030;-69
2022/01/02 14:05:59;;;;;;;0.13;0.13;;;;;;;;;;5028232;28;20025;-71
2022/01/02 14:08:25;;;;;;;0.20;0.20;;;;;;;;;;5029196;28;20036;-70
2022/01/02 14:11:05;;;;;;;1.08;0.98;;;;;;;;;;5026923;28;20014;-70
2022/01/02 14:13:35;;;;;;;0.10;0.10;;;;;;;;;;5027324;28;20032;-69
2022/01/02 14:16:02;;;;;;;0.93;0.52;;;;;;;;;;5027256;28;20392;-69
2022/01/02 14:18:28;;;;;;;0.30;0.30;;;;;;;;;;5027758;28;20022;-70
2022/01/02 14:21:00;;;;;;;0.80;0.80;;;;;;;;;;5027938;28;20108;-70
2022/01/02 14:23:26;;;;;;;0.43;0.43;;;;;;;;;;5026987;28;20038;-70
2022/01/02 14:25:52;;;;;;;0.45;0.45;;;;;;;;;;5025609;28;20069;-70
2022/01/02 14:28:18;;;;;;;0.13;0.13;;;;;;;;;;5026724;28;20053;-70
2022/01/02 14:30:44;;;;;;;0.30;0.30;;;;;;;;;;5025618;28;20045;-72
2022/01/02 14:33:10;;;;;;;0.25;0.25;;;;;;;;;;5026034;28;20029;-69
2022/01/02 14:35:36;;;;;;;0.20;0.20;;;;;;;;;;5027710;28;20116;-70
2022/01/02 14:38:02;;;;;;;0.00;0.00;;;;;;;;;;5026168;28;20033;-70
2022/01/02 14:40:28;;;;;;;0.00;0.00;;;;;;;;;;5028602;28;20506;-70
2022/01/02 14:42:54;;;;;;;0.10;0.10;;;;;;;;;;5025111;28;20777;-70
2022/01/02 14:45:20;;;;;;;0.10;0.10;;;;;;;;;;5026710;28;20373;-69
2022/01/02 14:47:46;;;;;;;0.20;0.20;;;;;;;;;;5023337;28;20047;-69
2022/01/02 14:50:15;;;;;;;1.17;0.47;;;;;;;;;;5026486;28;20472;-69